< Cyclone 200201 2002 Season Cyclone 200203 >
Cyclone 200202 (BESSI)
General InformationDetailed Track InformationTrack Information on Google MapsList of All Images || ResourceGoogle EarthGE AnimationAtom FeedGeoJSON
Detalied Best Track Wind (Time Zone = UTC)
Year Month Day Hour Lat. Long. Wind (kt) Gust (kt) Direc. of Major Storm Axis Radius of Major Storm Axis (nm) Radius of Minor Storm Axis (nm) Direc. of Major Gale Axis Radius of Major Gale Axis (nm) Radius of Minor Gale Axis (nm) Image
2001 11 25 06 -6.9 95.6 21 -1 symmetric - - symmetric - - Image
2001 11 25 12 -7.5 94.9 21 -1 symmetric - - symmetric - - Image
2001 11 25 18 -7.6 94.9 21 -1 symmetric - - symmetric - - Image
2001 11 26 00 -7.7 94.8 23 -1 symmetric - - symmetric - - Image
2001 11 26 06 -7.8 94.8 27 -1 symmetric - - symmetric - - Image
2001 11 26 12 -7.9 94.8 29 -1 symmetric - - symmetric - - Image
2001 11 26 18 -8.1 94.4 29 -1 symmetric - - symmetric - - Image
2001 11 27 00 -8.2 94.0 35 -1 symmetric - - symmetric - - Image
2001 11 27 06 -8.2 93.6 35 -1 symmetric - - symmetric - - Image
2001 11 27 12 -8.5 93.2 39 -1 symmetric - - symmetric - - Image
2001 11 27 18 -8.8 92.8 41 -1 symmetric - - symmetric - - Image
2001 11 28 00 -9.4 92.4 49 -1 symmetric - - symmetric - - Image
2001 11 28 06 -9.6 92.3 54 -1 symmetric - - symmetric - - Image
2001 11 28 12 -10.3 92.3 49 -1 symmetric - - symmetric - - Image
2001 11 28 18 -10.8 92.0 45 -1 symmetric - - symmetric - - Image
2001 11 29 00 -11.1 91.8 41 -1 symmetric - - symmetric - - Image
2001 11 29 06 -12.1 91.5 39 -1 symmetric - - symmetric - - Image
2001 11 29 12 -13.3 91.2 35 -1 symmetric - - symmetric - - Image
2001 11 29 18 -13.8 90.2 35 -1 symmetric - - symmetric - - Image
2001 11 30 00 -14.1 89.3 39 -1 symmetric - - symmetric - - Image
2001 11 30 06 -14.4 88.9 41 -1 symmetric - - symmetric - - Image
2001 11 30 12 -14.6 88.0 45 -1 symmetric - - symmetric - - Image
2001 11 30 18 -14.8 87.0 49 -1 symmetric - - symmetric - - Image
2001 12 1 00 -14.9 86.2 51 -1 symmetric - - symmetric - - Image
2001 12 1 06 -15.0 85.6 56 -1 symmetric - - symmetric - - Image
2001 12 1 12 -15.2 85.5 62 -1 symmetric - - symmetric - - Image
< Cyclone 200201 2002 Season Cyclone 200203 >

Help